SVA1267 OERK-OEGS
Flight info
| Callsign | SVA1267 |
|---|---|
| Flight time | 0h 40m |
| Altitude | 24000 |
| Route | IVONU2C/33L IVONU Z710 GAS |
| Aircraft | A21N/M-SDE3FGHIRWY/LB1 |
Departure
| Time | 2026-04-22 23:04 |
|---|---|
| Airport | King Khalid International Airport (OERK) |
Arrival
| Time | 2026-04-22 23:44 |
|---|---|
| Airport | Prince Naif bin Abdulaziz International Airport (OEGS) |
| Time | Latitude | Longitude | Altitude | Speed | Heading |
|---|---|---|---|---|---|
| 2026-04-22 22:43 | 24.95684 | 46.70619 | 2058 ft | 0 kts | 186° |
| 2026-04-22 22:50 | 24.95692 | 46.70620 | 2058 ft | 2 kts | 186° |
| 2026-04-22 22:50 | 24.95707 | 46.70622 | 2059 ft | 2 kts | 187° |
| 2026-04-22 22:51 | 24.95722 | 46.70624 | 2059 ft | 2 kts | 186° |
| 2026-04-22 22:51 | 24.95737 | 46.70626 | 2058 ft | 2 kts | 186° |
| 2026-04-22 22:51 | 24.95752 | 46.70628 | 2057 ft | 2 kts | 186° |
| 2026-04-22 22:51 | 24.95767 | 46.70631 | 2057 ft | 2 kts | 200° |
| 2026-04-22 22:52 | 24.95780 | 46.70638 | 2056 ft | 2 kts | 209° |
| 2026-04-22 22:52 | 24.95793 | 46.70647 | 2055 ft | 2 kts | 220° |
| 2026-04-22 22:52 | 24.95803 | 46.70658 | 2054 ft | 2 kts | 231° |
| 2026-04-22 22:52 | 24.95812 | 46.70672 | 2054 ft | 2 kts | 242° |
| 2026-04-22 22:53 | 24.95818 | 46.70687 | 2053 ft | 2 kts | 244° |
| 2026-04-22 22:53 | 24.95825 | 46.70702 | 2053 ft | 2 kts | 267° |
| 2026-04-22 22:53 | 24.95822 | 46.70718 | 2052 ft | 2 kts | 300° |
| 2026-04-22 22:53 | 24.95811 | 46.70730 | 2052 ft | 2 kts | 333° |
| 2026-04-22 22:54 | 24.95798 | 46.70736 | 2053 ft | 2 kts | 333° |
| 2026-04-22 22:54 | 24.95784 | 46.70744 | 2053 ft | 2 kts | 333° |
| 2026-04-22 22:54 | 24.95781 | 46.70746 | 2053 ft | 0 kts | 333° |
| 2026-04-22 22:57 | 24.95785 | 46.70744 | 2053 ft | 2 kts | 333° |
| 2026-04-22 22:57 | 24.95806 | 46.70731 | 2053 ft | 4 kts | 335° |
| 2026-04-22 22:57 | 24.95844 | 46.70740 | 2051 ft | 7 kts | 47° |
| 2026-04-22 22:57 | 24.95886 | 46.70818 | 2043 ft | 16 kts | 61° |
| 2026-04-22 22:58 | 24.95935 | 46.70912 | 2038 ft | 13 kts | 62° |
| 2026-04-22 22:58 | 24.95897 | 46.70989 | 2037 ft | 13 kts | 150° |
| 2026-04-22 22:58 | 24.95817 | 46.71038 | 2037 ft | 13 kts | 150° |
| 2026-04-22 22:58 | 24.95736 | 46.71090 | 2037 ft | 13 kts | 149° |
| 2026-04-22 22:59 | 24.95655 | 46.71143 | 2037 ft | 13 kts | 149° |
| 2026-04-22 22:59 | 24.95571 | 46.71194 | 2037 ft | 13 kts | 151° |
| 2026-04-22 22:59 | 24.95488 | 46.71248 | 2038 ft | 13 kts | 150° |
| 2026-04-22 22:59 | 24.95405 | 46.71299 | 2038 ft | 14 kts | 150° |
| 2026-04-22 23:00 | 24.95311 | 46.71358 | 2036 ft | 16 kts | 150° |
| 2026-04-22 23:00 | 24.95202 | 46.71428 | 2034 ft | 18 kts | 149° |
| 2026-04-22 23:00 | 24.95085 | 46.71501 | 2032 ft | 20 kts | 150° |
| 2026-04-22 23:00 | 24.94959 | 46.71581 | 2030 ft | 21 kts | 148° |
| 2026-04-22 23:01 | 24.94825 | 46.71664 | 2028 ft | 22 kts | 149° |
| 2026-04-22 23:01 | 24.94688 | 46.71753 | 2027 ft | 22 kts | 151° |
| 2026-04-22 23:01 | 24.94551 | 46.71838 | 2026 ft | 21 kts | 150° |
| 2026-04-22 23:01 | 24.94433 | 46.71912 | 2028 ft | 18 kts | 150° |
| 2026-04-22 23:02 | 24.94330 | 46.71984 | 2027 ft | 15 kts | 142° |
| 2026-04-22 23:02 | 24.94312 | 46.72081 | 2026 ft | 13 kts | 60° |
| 2026-04-22 23:02 | 24.94365 | 46.72180 | 2024 ft | 16 kts | 60° |
| 2026-04-22 23:02 | 24.94403 | 46.72254 | 2022 ft | 5 kts | 60° |
| 2026-04-22 23:03 | 24.94414 | 46.72268 | 2022 ft | 1 kts | 11° |
| 2026-04-22 23:03 | 24.94424 | 46.72263 | 2022 ft | 0 kts | 332° |
| 2026-04-22 23:03 | 24.94435 | 46.72257 | 2021 ft | 10 kts | 331° |
| 2026-04-22 23:03 | 24.94741 | 46.72065 | 2023 ft | 87 kts | 331° |
| 2026-04-22 23:04 | 24.95457 | 46.71611 | 2029 ft | 149 kts | 330° |
| 2026-04-22 23:04 | 24.96512 | 46.70945 | 2156 ft | 188 kts | 333° |
| 2026-04-22 23:04 | 24.97657 | 46.70225 | 2745 ft | 193 kts | 335° |
| 2026-04-22 23:04 | 24.98836 | 46.69607 | 3573 ft | 187 kts | 341° |
| 2026-04-22 23:05 | 25.00068 | 46.69111 | 4173 ft | 194 kts | 343° |
| 2026-04-22 23:05 | 25.01395 | 46.68623 | 4623 ft | 211 kts | 342° |
| 2026-04-22 23:05 | 25.02833 | 46.68091 | 5074 ft | 227 kts | 341° |
| 2026-04-22 23:05 | 25.04380 | 46.67509 | 5555 ft | 243 kts | 339° |
| 2026-04-22 23:06 | 25.06069 | 46.66864 | 5904 ft | 266 kts | 338° |
| 2026-04-22 23:06 | 25.07719 | 46.65857 | 6324 ft | 279 kts | 311° |
| 2026-04-22 23:06 | 25.08749 | 46.64083 | 6959 ft | 278 kts | 283° |
| 2026-04-22 23:06 | 25.08947 | 46.62008 | 7741 ft | 271 kts | 258° |
| 2026-04-22 23:07 | 25.08581 | 46.59993 | 8552 ft | 270 kts | 253° |
| 2026-04-22 23:07 | 25.08187 | 46.57972 | 9349 ft | 272 kts | 253° |
| 2026-04-22 23:07 | 25.07848 | 46.55935 | 10124 ft | 275 kts | 258° |
| 2026-04-22 23:07 | 25.07653 | 46.53812 | 10701 ft | 286 kts | 262° |
| 2026-04-22 23:08 | 25.07579 | 46.51552 | 11044 ft | 304 kts | 264° |
| 2026-04-22 23:08 | 25.07526 | 46.49178 | 11347 ft | 321 kts | 265° |
| 2026-04-22 23:08 | 25.07474 | 46.46635 | 11650 ft | 339 kts | 266° |
| 2026-04-22 23:08 | 25.07422 | 46.43978 | 11931 ft | 355 kts | 266° |
| 2026-04-22 23:09 | 25.07370 | 46.41237 | 12192 ft | 370 kts | 266° |
| 2026-04-22 23:09 | 25.07311 | 46.38338 | 12456 ft | 385 kts | 266° |
| 2026-04-22 23:09 | 25.07250 | 46.35338 | 12886 ft | 393 kts | 267° |
| 2026-04-22 23:09 | 25.07187 | 46.32346 | 13495 ft | 396 kts | 266° |
| 2026-04-22 23:10 | 25.07122 | 46.29313 | 14107 ft | 398 kts | 266° |
| 2026-04-22 23:10 | 25.07056 | 46.26271 | 14731 ft | 400 kts | 267° |
| 2026-04-22 23:10 | 25.06988 | 46.23181 | 15322 ft | 402 kts | 267° |
| 2026-04-22 23:10 | 25.06920 | 46.20122 | 15932 ft | 402 kts | 267° |
| 2026-04-22 23:11 | 25.06850 | 46.17041 | 16511 ft | 403 kts | 267° |
| 2026-04-22 23:11 | 25.06780 | 46.13942 | 17081 ft | 404 kts | 267° |
| 2026-04-22 23:11 | 25.06709 | 46.10849 | 17618 ft | 405 kts | 267° |
| 2026-04-22 23:11 | 25.06637 | 46.07764 | 18113 ft | 407 kts | 267° |
| 2026-04-22 23:12 | 25.06564 | 46.04656 | 18598 ft | 409 kts | 267° |
| 2026-04-22 23:12 | 25.06490 | 46.01529 | 19031 ft | 412 kts | 267° |
| 2026-04-22 23:12 | 25.06415 | 45.98329 | 19477 ft | 415 kts | 267° |
| 2026-04-22 23:12 | 25.06337 | 45.95152 | 19903 ft | 418 kts | 266° |
| 2026-04-22 23:13 | 25.06260 | 45.91964 | 20295 ft | 421 kts | 266° |
| 2026-04-22 23:13 | 25.06181 | 45.88757 | 20703 ft | 424 kts | 266° |
| 2026-04-22 23:13 | 25.06098 | 45.85506 | 21085 ft | 427 kts | 266° |
| 2026-04-22 23:13 | 25.06015 | 45.82227 | 21476 ft | 429 kts | 266° |
| 2026-04-22 23:14 | 25.05982 | 45.80943 | 21627 ft | 430 kts | 266° |
| 2026-04-22 23:14 | 25.05933 | 45.79055 | 21859 ft | 432 kts | 266° |
| 2026-04-22 23:14 | 25.05849 | 45.75742 | 22274 ft | 433 kts | 266° |
| 2026-04-22 23:15 | 25.05785 | 45.72399 | 22665 ft | 435 kts | 268° |
| 2026-04-22 23:15 | 25.06050 | 45.69069 | 23023 ft | 441 kts | 276° |
| 2026-04-22 23:15 | 25.06727 | 45.65787 | 23412 ft | 445 kts | 283° |
| 2026-04-22 23:15 | 25.07813 | 45.62589 | 23820 ft | 449 kts | 290° |
| 2026-04-22 23:16 | 25.09133 | 45.59466 | 23969 ft | 450 kts | 292° |
| 2026-04-22 23:16 | 25.10493 | 45.56352 | 23983 ft | 447 kts | 292° |
| 2026-04-22 23:16 | 25.11838 | 45.53294 | 23970 ft | 445 kts | 293° |
| 2026-04-22 23:16 | 25.13179 | 45.50242 | 23960 ft | 444 kts | 292° |
| 2026-04-22 23:17 | 25.14517 | 45.47185 | 23955 ft | 444 kts | 293° |
| 2026-04-22 23:17 | 25.15867 | 45.44094 | 23952 ft | 445 kts | 292° |
| 2026-04-22 23:17 | 25.17206 | 45.41025 | 23948 ft | 444 kts | 292° |
| 2026-04-22 23:17 | 25.18538 | 45.37966 | 23949 ft | 445 kts | 292° |
| 2026-04-22 23:18 | 25.19878 | 45.34886 | 23950 ft | 445 kts | 292° |
| 2026-04-22 23:18 | 25.21209 | 45.31822 | 23947 ft | 444 kts | 292° |
| 2026-04-22 23:18 | 25.22540 | 45.28758 | 23949 ft | 444 kts | 292° |
| 2026-04-22 23:18 | 25.23877 | 45.25677 | 23947 ft | 444 kts | 292° |
| 2026-04-22 23:19 | 25.25200 | 45.22623 | 23949 ft | 444 kts | 292° |
| 2026-04-22 23:19 | 25.26531 | 45.19548 | 23953 ft | 443 kts | 292° |
| 2026-04-22 23:19 | 25.27858 | 45.16484 | 23953 ft | 443 kts | 292° |
| 2026-04-22 23:19 | 25.29186 | 45.13411 | 23955 ft | 443 kts | 292° |
| 2026-04-22 23:20 | 25.30519 | 45.10328 | 23958 ft | 442 kts | 292° |
| 2026-04-22 23:20 | 25.31829 | 45.07295 | 23956 ft | 442 kts | 292° |
| 2026-04-22 23:20 | 25.33159 | 45.04209 | 23956 ft | 443 kts | 292° |
| 2026-04-22 23:20 | 25.34480 | 45.01145 | 23958 ft | 442 kts | 292° |
| 2026-04-22 23:21 | 25.35794 | 44.98095 | 23960 ft | 442 kts | 292° |
| 2026-04-22 23:21 | 25.37122 | 44.95011 | 23962 ft | 442 kts | 292° |
| 2026-04-22 23:21 | 25.38442 | 44.91945 | 23961 ft | 441 kts | 292° |
| 2026-04-22 23:21 | 25.39753 | 44.88897 | 23960 ft | 442 kts | 292° |
| 2026-04-22 23:22 | 25.41057 | 44.85862 | 23957 ft | 442 kts | 292° |
| 2026-04-22 23:22 | 25.42384 | 44.82770 | 23957 ft | 442 kts | 292° |
| 2026-04-22 23:22 | 25.43702 | 44.79698 | 23956 ft | 442 kts | 292° |
| 2026-04-22 23:22 | 25.45003 | 44.76663 | 23956 ft | 442 kts | 292° |
| 2026-04-22 23:23 | 25.46326 | 44.73576 | 23954 ft | 442 kts | 292° |
| 2026-04-22 23:23 | 25.47650 | 44.70479 | 23953 ft | 442 kts | 292° |
| 2026-04-22 23:23 | 25.48955 | 44.67426 | 23912 ft | 443 kts | 292° |
| 2026-04-22 23:23 | 25.50269 | 44.64354 | 23655 ft | 440 kts | 292° |
| 2026-04-22 23:24 | 25.51614 | 44.61308 | 23212 ft | 441 kts | 295° |
| 2026-04-22 23:24 | 25.53221 | 44.58437 | 22626 ft | 440 kts | 301° |
| 2026-04-22 23:24 | 25.55102 | 44.55780 | 21982 ft | 440 kts | 307° |
| 2026-04-22 23:24 | 25.57222 | 44.53360 | 21294 ft | 439 kts | 311° |
| 2026-04-22 23:25 | 25.59432 | 44.51055 | 20630 ft | 435 kts | 312° |
| 2026-04-22 23:25 | 25.61636 | 44.48790 | 19979 ft | 432 kts | 313° |
| 2026-04-22 23:25 | 25.63825 | 44.46547 | 19334 ft | 428 kts | 313° |
| 2026-04-22 23:25 | 25.65987 | 44.44325 | 18697 ft | 424 kts | 313° |
| 2026-04-22 23:26 | 25.68132 | 44.42118 | 18080 ft | 420 kts | 312° |
| 2026-04-22 23:26 | 25.70261 | 44.39923 | 17455 ft | 417 kts | 313° |
| 2026-04-22 23:26 | 25.72376 | 44.37742 | 16837 ft | 414 kts | 313° |
| 2026-04-22 23:26 | 25.74472 | 44.35575 | 16213 ft | 411 kts | 313° |
| 2026-04-22 23:27 | 25.76555 | 44.33421 | 15585 ft | 409 kts | 312° |
| 2026-04-22 23:27 | 25.78641 | 44.31262 | 14956 ft | 407 kts | 312° |
| 2026-04-22 23:27 | 25.80696 | 44.29137 | 14339 ft | 405 kts | 312° |
| 2026-04-22 23:27 | 25.82744 | 44.27015 | 13720 ft | 403 kts | 312° |
| 2026-04-22 23:28 | 25.84767 | 44.24919 | 13103 ft | 401 kts | 313° |
| 2026-04-22 23:28 | 25.86791 | 44.22820 | 12484 ft | 399 kts | 313° |
| 2026-04-22 23:28 | 25.88800 | 44.20732 | 12004 ft | 392 kts | 313° |
| 2026-04-22 23:28 | 25.90770 | 44.18692 | 11683 ft | 381 kts | 313° |
| 2026-04-22 23:29 | 25.92674 | 44.16721 | 11420 ft | 369 kts | 313° |
| 2026-04-22 23:29 | 25.94539 | 44.14786 | 11163 ft | 358 kts | 313° |
| 2026-04-22 23:29 | 25.96316 | 44.12941 | 10931 ft | 347 kts | 313° |
| 2026-04-22 23:29 | 25.98069 | 44.11117 | 10647 ft | 338 kts | 313° |
| 2026-04-22 23:30 | 25.99745 | 44.09372 | 10460 ft | 327 kts | 313° |
| 2026-04-22 23:30 | 26.01381 | 44.07670 | 10315 ft | 315 kts | 314° |
| 2026-04-22 23:30 | 26.02951 | 44.06036 | 10166 ft | 304 kts | 314° |
| 2026-04-22 23:30 | 26.04533 | 44.04505 | 10011 ft | 295 kts | 322° |
| 2026-04-22 23:31 | 26.06276 | 44.03392 | 9881 ft | 290 kts | 329° |
| 2026-04-22 23:31 | 26.08095 | 44.02368 | 9684 ft | 290 kts | 330° |
| 2026-04-22 23:31 | 26.09886 | 44.01380 | 9453 ft | 289 kts | 330° |
| 2026-04-22 23:31 | 26.11685 | 44.00392 | 9222 ft | 288 kts | 331° |
| 2026-04-22 23:32 | 26.13495 | 43.99397 | 8986 ft | 288 kts | 331° |
| 2026-04-22 23:32 | 26.15279 | 43.98417 | 8757 ft | 287 kts | 331° |
| 2026-04-22 23:32 | 26.17077 | 43.97430 | 8530 ft | 287 kts | 332° |
| 2026-04-22 23:32 | 26.18880 | 43.96439 | 8299 ft | 287 kts | 332° |
| 2026-04-22 23:33 | 26.20663 | 43.95460 | 8068 ft | 284 kts | 332° |
| 2026-04-22 23:33 | 26.22414 | 43.94498 | 7847 ft | 277 kts | 333° |
| 2026-04-22 23:33 | 26.24119 | 43.93562 | 7638 ft | 273 kts | 333° |
| 2026-04-22 23:33 | 26.25826 | 43.92624 | 7436 ft | 273 kts | 334° |
| 2026-04-22 23:34 | 26.27556 | 43.91674 | 7233 ft | 279 kts | 334° |
| 2026-04-22 23:34 | 26.29318 | 43.90706 | 7016 ft | 284 kts | 334° |
| 2026-04-22 23:34 | 26.31098 | 43.89728 | 6796 ft | 284 kts | 335° |
| 2026-04-22 23:34 | 26.32878 | 43.88750 | 6581 ft | 284 kts | 335° |
| 2026-04-22 23:35 | 26.34633 | 43.87786 | 6363 ft | 284 kts | 335° |
| 2026-04-22 23:35 | 26.36400 | 43.86815 | 6147 ft | 283 kts | 335° |
| 2026-04-22 23:35 | 26.38168 | 43.85844 | 5925 ft | 279 kts | 335° |
| 2026-04-22 23:35 | 26.39881 | 43.84902 | 5711 ft | 271 kts | 335° |
| 2026-04-22 23:36 | 26.41575 | 43.83970 | 5497 ft | 264 kts | 335° |
| 2026-04-22 23:36 | 26.43185 | 43.83062 | 5292 ft | 258 kts | 335° |
| 2026-04-22 23:36 | 26.44772 | 43.82153 | 5083 ft | 250 kts | 335° |
| 2026-04-22 23:36 | 26.46278 | 43.81287 | 4877 ft | 237 kts | 335° |
| 2026-04-22 23:37 | 26.47708 | 43.80464 | 4721 ft | 225 kts | 335° |
| 2026-04-22 23:37 | 26.49052 | 43.79665 | 4572 ft | 217 kts | 329° |
| 2026-04-22 23:37 | 26.50026 | 43.78423 | 4483 ft | 214 kts | 292° |
| 2026-04-22 23:37 | 26.50180 | 43.76760 | 4499 ft | 222 kts | 257° |
| 2026-04-22 23:38 | 26.49660 | 43.75151 | 4512 ft | 219 kts | 246° |
| 2026-04-22 23:38 | 26.49624 | 43.75062 | 4511 ft | 219 kts | 245° |
| 2026-04-22 23:39 | 26.49418 | 43.74563 | 4503 ft | 218 kts | 245° |
| 2026-04-22 23:40 | 26.48779 | 43.73092 | 4481 ft | 207 kts | 244° |
| 2026-04-22 23:40 | 26.48074 | 43.71700 | 4499 ft | 205 kts | 227° |
| 2026-04-22 23:40 | 26.46893 | 43.70879 | 4551 ft | 202 kts | 193° |
| 2026-04-22 23:40 | 26.45499 | 43.70638 | 4532 ft | 200 kts | 184° |
| 2026-04-22 23:41 | 26.44114 | 43.70476 | 4506 ft | 200 kts | 183° |
| 2026-04-22 23:41 | 26.42746 | 43.70491 | 4461 ft | 193 kts | 165° |
| 2026-04-22 23:41 | 26.41504 | 43.70967 | 4246 ft | 183 kts | 152° |
| 2026-04-22 23:41 | 26.40399 | 43.71592 | 4037 ft | 173 kts | 147° |
| 2026-04-22 23:42 | 26.39332 | 43.72234 | 3814 ft | 171 kts | 147° |
| 2026-04-22 23:42 | 26.38278 | 43.72852 | 3596 ft | 171 kts | 148° |
| 2026-04-22 23:42 | 26.37229 | 43.73453 | 3377 ft | 166 kts | 148° |
| 2026-04-22 23:42 | 26.36240 | 43.74010 | 3133 ft | 152 kts | 148° |
| 2026-04-22 23:43 | 26.35306 | 43.74543 | 2953 ft | 151 kts | 148° |
| 2026-04-22 23:43 | 26.34362 | 43.75084 | 2769 ft | 150 kts | 149° |
| 2026-04-22 23:43 | 26.33435 | 43.75613 | 2576 ft | 150 kts | 150° |
| 2026-04-22 23:43 | 26.32509 | 43.76138 | 2375 ft | 149 kts | 149° |
| 2026-04-22 23:44 | 26.31589 | 43.76667 | 2195 ft | 148 kts | 150° |
| 2026-04-22 23:44 | 26.30700 | 43.77177 | 2136 ft | 128 kts | 154° |
| 2026-04-22 23:44 | 26.30055 | 43.77544 | 2128 ft | 78 kts | 152° |
| 2026-04-22 23:44 | 26.29717 | 43.77712 | 2130 ft | 40 kts | 173° |
| 2026-04-22 23:45 | 26.29531 | 43.77723 | 2132 ft | 17 kts | 180° |
| 2026-04-22 23:45 | 26.29441 | 43.77682 | 2134 ft | 13 kts | 246° |
| 2026-04-22 23:45 | 26.29485 | 43.77616 | 2134 ft | 11 kts | 335° |
| 2026-04-22 23:45 | 26.29565 | 43.77571 | 2134 ft | 13 kts | 331° |
| 2026-04-22 23:46 | 26.29659 | 43.77518 | 2133 ft | 16 kts | 333° |
| 2026-04-22 23:46 | 26.29765 | 43.77458 | 2132 ft | 18 kts | 333° |
| 2026-04-22 23:46 | 26.29884 | 43.77390 | 2131 ft | 19 kts | 333° |
| 2026-04-22 23:46 | 26.30010 | 43.77318 | 2131 ft | 20 kts | 332° |
| 2026-04-22 23:47 | 26.30141 | 43.77243 | 2133 ft | 20 kts | 333° |
| 2026-04-22 23:47 | 26.30256 | 43.77178 | 2134 ft | 11 kts | 332° |
| 2026-04-22 23:47 | 26.30300 | 43.77124 | 2136 ft | 9 kts | 270° |
| 2026-04-22 23:47 | 26.30281 | 43.77068 | 2137 ft | 4 kts | 242° |
| 2026-04-22 23:48 | 26.30279 | 43.77064 | 2137 ft | 0 kts | 242° |